createdAt,value
2019-05-09T00:02:21.279Z,14.73
2019-05-09T00:04:53.152Z,13.90
2019-05-09T00:07:23.311Z,14.37
2019-05-09T00:09:53.435Z,13.70
2019-05-09T00:12:23.494Z,14.33
2019-05-09T00:14:53.979Z,14.43
2019-05-09T00:17:23.848Z,14.63
2019-05-09T00:19:55.441Z,15.03
2019-05-09T00:22:25.214Z,15.03
2019-05-09T00:24:54.919Z,14.53
2019-05-09T00:27:24.685Z,13.80
2019-05-09T00:29:54.543Z,15.13
2019-05-09T00:32:26.262Z,15.17
2019-05-09T00:35:04.004Z,14.30
2019-05-09T00:37:53.548Z,14.30
2019-05-09T00:40:24.449Z,15.37
2019-05-09T00:42:55.861Z,15.57
2019-05-09T00:45:33.424Z,14.57
2019-05-09T00:48:03.544Z,15.30
2019-05-09T00:50:34.168Z,15.37
2019-05-09T00:53:04.143Z,15.40
2019-05-09T00:55:33.873Z,14.50
2019-05-09T00:58:04.170Z,15.27
2019-05-09T01:00:34.300Z,15.30
2019-05-09T01:03:04.093Z,14.63
2019-05-09T01:05:34.316Z,14.00
2019-05-09T01:08:04.790Z,15.00
2019-05-09T01:10:34.461Z,15.00
2019-05-09T01:13:04.223Z,15.43
2019-05-09T01:15:34.125Z,14.60
2019-05-09T01:18:04.598Z,14.60
2019-05-09T01:20:34.558Z,15.60
2019-05-09T01:23:04.338Z,14.57
2019-05-09T01:25:34.113Z,14.73
2019-05-09T01:28:03.877Z,14.83
2019-05-09T01:30:33.795Z,13.73
2019-05-09T01:33:13.765Z,16.20
2019-05-09T01:35:43.543Z,15.00
2019-05-09T01:38:14.282Z,15.17
2019-05-09T01:40:44.281Z,14.50
2019-05-09T01:43:14.099Z,14.50
2019-05-09T01:45:47.005Z,14.20
2019-05-09T01:48:19.937Z,14.80
2019-05-09T01:50:49.618Z,13.07
2019-05-09T01:53:21.059Z,14.27
2019-05-09T01:56:00.313Z,13.83
2019-05-09T01:58:34.245Z,14.37
2019-05-09T02:01:06.001Z,14.00
2019-05-09T02:03:35.721Z,14.37
2019-05-09T02:06:05.933Z,14.93
2019-05-09T02:08:35.634Z,13.77
2019-05-09T02:11:05.565Z,13.43
2019-05-09T02:13:35.285Z,13.93
2019-05-09T02:16:09.119Z,13.73
2019-05-09T02:18:44.125Z,14.53
2019-05-09T02:21:14.636Z,13.40
2019-05-09T02:23:44.492Z,14.00
2019-05-09T02:26:14.352Z,14.00
2019-05-09T02:28:44.054Z,13.63
2019-05-09T02:31:16.167Z,13.37
2019-05-09T02:33:45.893Z,12.93
2019-05-09T02:36:18.676Z,13.63
2019-05-09T02:38:48.824Z,13.83
2019-05-09T02:41:19.637Z,14.17
2019-05-09T02:43:50.017Z,13.67
2019-05-09T02:46:21.740Z,13.77
2019-05-09T02:48:51.536Z,12.83
2019-05-09T02:51:21.234Z,14.30
2019-05-09T02:53:51.078Z,13.80
2019-05-09T02:56:20.974Z,13.33
2019-05-09T02:58:59.018Z,14.60
2019-05-09T03:01:30.658Z,12.90
2019-05-09T03:04:00.524Z,12.83
2019-05-09T03:06:30.413Z,13.10
2019-05-09T03:09:01.797Z,13.97
2019-05-09T03:11:31.665Z,13.20
2019-05-09T03:14:01.867Z,12.20
2019-05-09T03:16:31.586Z,12.83
2019-05-09T03:19:01.378Z,13.03
2019-05-09T03:21:38.760Z,12.90
2019-05-09T03:24:09.782Z,12.90
2019-05-09T03:26:39.895Z,13.13
2019-05-09T03:29:11.404Z,13.30
2019-05-09T03:31:42.759Z,13.77
2019-05-09T03:34:12.494Z,13.67
2019-05-09T03:36:42.318Z,14.30
2019-05-09T03:39:12.188Z,15.63
2019-05-09T03:41:42.106Z,15.20
2019-05-09T03:44:11.974Z,15.07
2019-05-09T03:46:47.637Z,15.87
2019-05-09T03:49:21.868Z,16.00
2019-05-09T03:51:51.614Z,15.47
2019-05-09T03:54:21.346Z,15.90
2019-05-09T03:57:10.770Z,17.00
2019-05-09T03:59:40.501Z,17.17
2019-05-09T04:02:10.467Z,17.03
2019-05-09T04:04:40.184Z,17.43
2019-05-09T04:07:09.958Z,17.73
2019-05-09T04:09:39.932Z,16.97
2019-05-09T04:12:09.805Z,16.50
2019-05-09T04:14:40.016Z,16.63
2019-05-09T04:17:11.592Z,16.33
2019-05-09T04:19:41.401Z,17.30
2019-05-09T04:22:11.189Z,15.60
2019-05-09T04:24:41.021Z,17.13
2019-05-09T04:27:12.527Z,17.17
2019-05-09T04:29:42.347Z,16.73
2019-05-09T04:32:12.145Z,16.67
2019-05-09T04:34:42.015Z,17.73
2019-05-09T04:37:12.335Z,17.93
2019-05-09T04:39:42.057Z,17.90
2019-05-09T04:42:11.748Z,17.83
2019-05-09T04:44:43.102Z,18.20
2019-05-09T04:47:12.837Z,19.40
2019-05-09T04:49:45.122Z,18.87
2019-05-09T04:52:13.920Z,18.80
2019-05-09T04:54:43.716Z,19.30
2019-05-09T04:57:13.425Z,17.93
2019-05-09T04:59:43.113Z,18.83
2019-05-09T05:02:20.496Z,19.77
2019-05-09T05:04:50.354Z,19.67
2019-05-09T05:07:20.104Z,17.73
2019-05-09T05:09:49.877Z,18.30
2019-05-09T05:12:19.549Z,18.40
2019-05-09T05:14:49.396Z,18.27
2019-05-09T05:17:19.142Z,18.47
2019-05-09T05:19:49.663Z,19.83
2019-05-09T05:22:28.356Z,19.17
2019-05-09T05:25:00.051Z,18.77
2019-05-09T05:27:29.784Z,19.33
2019-05-09T05:29:59.707Z,18.37
2019-05-09T05:32:43.057Z,19.20
2019-05-09T05:35:32.980Z,19.00
2019-05-09T05:38:02.680Z,17.73
2019-05-09T05:40:33.909Z,16.80
2019-05-09T05:43:03.830Z,16.90
2019-05-09T05:45:37.381Z,15.90
2019-05-09T05:48:14.142Z,16.37
2019-05-09T05:50:43.935Z,15.47
2019-05-09T05:53:13.644Z,16.33
2019-05-09T05:55:43.378Z,16.20
2019-05-09T05:58:13.134Z,15.67
2019-05-09T06:00:42.930Z,15.33
2019-05-09T06:03:12.679Z,15.80
2019-05-09T06:05:42.441Z,16.97
2019-05-09T06:08:12.171Z,16.43
2019-05-09T06:10:41.947Z,16.30
2019-05-09T06:13:11.738Z,17.10
2019-05-09T06:15:41.790Z,16.50
2019-05-09T06:18:11.545Z,15.70
2019-05-09T06:20:41.618Z,15.70
2019-05-09T06:23:11.374Z,14.63
2019-05-09T06:25:41.117Z,13.17
2019-05-09T06:28:10.792Z,13.47
2019-05-09T06:30:41.326Z,13.43
2019-05-09T06:33:11.326Z,11.83
2019-05-09T06:35:41.016Z,11.53
2019-05-09T06:38:10.880Z,11.27
2019-05-09T06:40:40.798Z,10.97
2019-05-09T06:43:18.347Z,11.70
2019-05-09T06:46:08.143Z,10.83
2019-05-09T06:48:38.911Z,10.67
2019-05-09T06:51:08.675Z,10.67
2019-05-09T06:53:38.396Z,9.63
2019-05-09T06:56:08.293Z,8.13
2019-05-09T06:58:39.760Z,9.00
2019-05-09T07:01:18.246Z,9.30
2019-05-09T07:03:57.548Z,10.07
2019-05-09T07:06:31.666Z,10.37
2019-05-09T07:09:03.187Z,10.80
2019-05-09T07:11:33.012Z,12.33
2019-05-09T07:14:02.803Z,11.70
2019-05-09T07:16:32.689Z,11.87
2019-05-09T07:19:02.421Z,12.73
2019-05-09T07:21:49.669Z,12.27
2019-05-09T07:24:20.376Z,12.83
2019-05-09T07:26:50.099Z,12.33
2019-05-09T07:29:20.043Z,11.60
2019-05-09T07:31:51.414Z,11.53
2019-05-09T07:34:22.981Z,12.27
2019-05-09T07:36:52.752Z,13.13
2019-05-09T07:39:22.691Z,11.53
2019-05-09T07:41:52.420Z,11.07
2019-05-09T07:44:22.186Z,11.20
2019-05-09T07:46:59.576Z,11.93
2019-05-09T07:49:30.018Z,11.23
2019-05-09T07:52:06.092Z,11.63
2019-05-09T07:54:31.278Z,10.93
2019-05-09T07:57:01.068Z,9.63
2019-05-09T07:59:30.813Z,10.27
2019-05-09T08:02:00.639Z,9.50
2019-05-09T08:04:30.372Z,8.93
2019-05-09T08:07:00.335Z,9.10
2019-05-09T08:09:30.071Z,8.97
2019-05-09T08:11:59.856Z,9.23
2019-05-09T08:14:29.606Z,9.37
2019-05-09T08:16:59.388Z,9.27
2019-05-09T08:19:29.379Z,10.00
2019-05-09T08:21:59.126Z,9.97
2019-05-09T08:24:28.945Z,9.60
2019-05-09T08:26:58.714Z,10.20
2019-05-09T08:29:28.616Z,10.13
2019-05-09T08:31:58.526Z,10.90
2019-05-09T08:34:28.598Z,11.10
2019-05-09T08:36:58.386Z,12.57
2019-05-09T08:39:28.287Z,12.70
2019-05-09T08:41:59.453Z,13.10
2019-05-09T08:44:31.216Z,12.70
2019-05-09T08:47:01.213Z,14.20
2019-05-09T08:49:41.839Z,13.57
2019-05-09T08:52:16.326Z,14.70
2019-05-09T08:54:48.846Z,13.97
2019-05-09T08:57:18.740Z,14.13
2019-05-09T08:59:50.709Z,12.73
2019-05-09T09:02:22.337Z,12.77
2019-05-09T09:04:51.633Z,13.20
2019-05-09T09:07:21.353Z,14.13
2019-05-09T09:09:51.112Z,13.37
2019-05-09T09:12:30.392Z,14.37
2019-05-09T09:14:52.404Z,13.80
2019-05-09T09:17:22.158Z,13.77
2019-05-09T09:19:51.875Z,14.67
2019-05-09T09:22:22.481Z,15.07
2019-05-09T09:24:52.244Z,14.20
2019-05-09T09:27:22.240Z,16.20
2019-05-09T09:29:52.015Z,15.53
2019-05-09T09:32:21.799Z,17.03
2019-05-09T09:34:51.514Z,16.50
2019-05-09T09:37:21.374Z,16.90
2019-05-09T09:39:51.574Z,16.87
2019-05-09T09:42:21.400Z,16.30
2019-05-09T09:44:51.209Z,16.57
2019-05-09T09:47:23.465Z,16.50
2019-05-09T09:49:55.092Z,17.13
2019-05-09T09:52:24.004Z,16.80
2019-05-09T09:54:53.805Z,16.90
2019-05-09T09:57:23.889Z,18.60
2019-05-09T09:59:55.334Z,17.17
2019-05-09T10:02:27.939Z,17.60
2019-05-09T10:04:57.995Z,18.43
2019-05-09T10:07:28.053Z,18.30
2019-05-09T10:09:58.482Z,18.57
2019-05-09T10:12:29.134Z,18.33
2019-05-09T10:15:19.006Z,17.77
2019-05-09T10:17:58.974Z,17.77
2019-05-09T10:20:30.631Z,18.20
2019-05-09T10:23:11.130Z,17.33
2019-05-09T10:25:31.873Z,16.67
2019-05-09T10:28:01.638Z,17.37
2019-05-09T10:30:34.194Z,16.67
2019-05-09T10:33:04.111Z,17.50
2019-05-09T10:35:33.810Z,16.23
2019-05-09T10:38:03.627Z,18.27
2019-05-09T10:40:33.680Z,14.67
2019-05-09T10:43:08.218Z,14.57
2019-05-09T10:45:45.636Z,13.00
2019-05-09T10:48:15.402Z,13.70
2019-05-09T10:50:47.844Z,14.17
2019-05-09T10:53:17.985Z,16.83
2019-05-09T10:55:48.284Z,14.23
2019-05-09T10:58:20.238Z,14.87
2019-05-09T11:00:49.732Z,14.33
2019-05-09T11:03:20.064Z,12.00
2019-05-09T11:05:49.786Z,11.60
2019-05-09T11:08:20.055Z,9.93
2019-05-09T11:10:49.971Z,9.40
2019-05-09T11:13:20.186Z,10.33
2019-05-09T11:15:50.230Z,11.10
2019-05-09T11:18:20.049Z,10.33
2019-05-09T11:20:49.857Z,10.93
2019-05-09T11:23:19.745Z,11.43
2019-05-09T11:25:49.859Z,10.70
2019-05-09T11:28:19.765Z,10.40
2019-05-09T11:30:49.787Z,9.17
2019-05-09T11:33:19.662Z,8.30
2019-05-09T11:35:49.531Z,8.30
2019-05-09T11:38:32.181Z,9.03
2019-05-09T11:40:51.226Z,7.83
2019-05-09T11:43:21.104Z,7.23
2019-05-09T11:45:51.166Z,7.60
2019-05-09T11:48:21.402Z,7.27
2019-05-09T11:50:51.276Z,7.43
2019-05-09T11:53:21.115Z,7.77
2019-05-09T11:55:50.949Z,6.80
2019-05-09T11:58:20.818Z,6.60
2019-05-09T12:00:50.869Z,7.40
2019-05-09T12:03:20.743Z,6.77
2019-05-09T12:05:50.548Z,6.80
2019-05-09T12:08:20.345Z,6.50
2019-05-09T12:10:50.155Z,6.33
2019-05-09T12:13:21.685Z,7.53
2019-05-09T12:15:51.528Z,7.10
2019-05-09T12:18:21.272Z,6.90
2019-05-09T12:20:51.213Z,5.40
2019-05-09T12:23:21.159Z,5.47
2019-05-09T12:25:51.014Z,6.70
2019-05-09T12:28:21.107Z,7.07
2019-05-09T12:30:50.859Z,8.73
2019-05-09T12:33:20.794Z,7.80
2019-05-09T12:35:50.609Z,8.27
2019-05-09T12:38:20.567Z,7.10
2019-05-09T12:40:50.505Z,6.40
2019-05-09T12:43:20.374Z,5.63
2019-05-09T12:45:50.249Z,6.20
2019-05-09T12:48:20.231Z,6.57
2019-05-09T12:50:49.959Z,6.73
2019-05-09T12:53:22.774Z,6.90
2019-05-09T12:55:54.207Z,5.33
2019-05-09T12:58:29.794Z,5.20
2019-05-09T13:00:59.959Z,5.37
2019-05-09T13:03:30.126Z,5.00
2019-05-09T13:05:59.925Z,4.53
2019-05-09T13:08:30.167Z,4.90
2019-05-09T13:11:02.501Z,4.40
2019-05-09T13:13:32.289Z,4.57
2019-05-09T13:16:14.232Z,5.40
2019-05-09T13:19:02.701Z,5.33
2019-05-09T13:21:33.415Z,5.20
2019-05-09T13:24:03.377Z,4.93
2019-05-09T13:26:33.174Z,5.00
2019-05-09T13:29:03.062Z,4.87
2019-05-09T13:31:34.797Z,6.00
2019-05-09T13:34:04.462Z,6.10
2019-05-09T13:36:34.248Z,5.50
2019-05-09T13:39:08.406Z,5.90
2019-05-09T13:41:38.333Z,5.53
2019-05-09T13:44:13.709Z,5.67
2019-05-09T13:46:40.522Z,6.80
2019-05-09T13:49:14.295Z,6.20
2019-05-09T13:51:48.689Z,6.50
2019-05-09T13:54:13.597Z,6.97
2019-05-09T13:56:43.389Z,5.70
2019-05-09T13:59:13.251Z,6.23
2019-05-09T14:01:44.425Z,5.77
2019-05-09T14:04:14.315Z,4.77
2019-05-09T14:06:44.197Z,4.90
2019-05-09T14:09:14.073Z,4.50
2019-05-09T14:11:43.849Z,4.57
2019-05-09T14:14:13.593Z,4.67
2019-05-09T14:16:43.349Z,4.50
2019-05-09T14:19:39.513Z,4.37
2019-05-09T14:21:47.978Z,4.03
2019-05-09T14:24:19.172Z,4.40
2019-05-09T14:26:48.593Z,3.97
2019-05-09T14:29:20.430Z,4.53
2019-05-09T14:31:49.978Z,4.77
2019-05-09T14:34:19.967Z,4.67
2019-05-09T14:36:49.863Z,5.07
2019-05-09T14:39:19.769Z,5.20
2019-05-09T14:41:49.750Z,5.20
2019-05-09T14:44:19.593Z,4.50
2019-05-09T14:46:52.994Z,4.10
2019-05-09T14:49:22.782Z,4.43
2019-05-09T14:51:52.520Z,4.27
2019-05-09T14:54:22.326Z,4.80
2019-05-09T14:56:53.039Z,4.40
2019-05-09T14:59:22.828Z,4.53
2019-05-09T15:01:52.732Z,4.90
2019-05-09T15:04:22.727Z,4.90
2019-05-09T15:06:52.483Z,4.60
2019-05-09T15:09:22.358Z,4.17
2019-05-09T15:11:52.185Z,4.33
2019-05-09T15:14:22.119Z,4.60
2019-05-09T15:16:51.937Z,4.20
2019-05-09T15:19:21.825Z,4.80
2019-05-09T15:21:51.556Z,4.33
2019-05-09T15:24:21.314Z,4.00
2019-05-09T15:26:51.132Z,4.07
2019-05-09T15:29:20.851Z,3.97
2019-05-09T15:31:54.250Z,4.23
2019-05-09T15:34:22.146Z,4.33
2019-05-09T15:36:52.030Z,4.33
2019-05-09T15:39:21.823Z,4.30
2019-05-09T15:41:52.050Z,4.77
2019-05-09T15:44:23.515Z,5.37
2019-05-09T15:47:18.380Z,4.73
2019-05-09T15:49:49.412Z,4.60
2019-05-09T15:52:19.349Z,4.63
2019-05-09T15:54:49.114Z,5.23
2019-05-09T15:57:18.860Z,4.30
2019-05-09T15:59:48.651Z,4.40
2019-05-09T16:02:19.245Z,4.83
2019-05-09T16:04:49.112Z,4.37
2019-05-09T16:07:18.914Z,3.40
2019-05-09T16:09:48.809Z,4.07
2019-05-09T16:12:18.675Z,3.57
2019-05-09T16:14:48.729Z,3.47
2019-05-09T16:17:19.221Z,3.63
2019-05-09T16:19:49.268Z,2.60
2019-05-09T16:22:19.252Z,2.63
2019-05-09T16:24:48.969Z,2.60
2019-05-09T16:27:18.707Z,2.93
2019-05-09T16:29:48.768Z,3.22
2019-05-09T16:32:18.809Z,2.93
2019-05-09T16:34:48.577Z,2.90
2019-05-09T16:37:18.388Z,3.20
2019-05-09T16:39:48.122Z,3.77
2019-05-09T16:42:18.018Z,4.30
2019-05-09T16:44:48.183Z,4.23
2019-05-09T16:47:21.873Z,4.27
2019-05-09T16:49:50.661Z,4.43
2019-05-09T16:52:20.464Z,4.03
2019-05-09T16:54:51.855Z,4.50
2019-05-09T16:57:21.854Z,4.20
2019-05-09T16:59:51.590Z,4.37
2019-05-09T17:02:24.918Z,5.00
2019-05-09T17:04:53.067Z,5.60
2019-05-09T17:07:22.830Z,6.37
2019-05-09T17:09:52.801Z,5.37
2019-05-09T17:12:22.712Z,6.10
2019-05-09T17:14:52.591Z,6.30
2019-05-09T17:17:22.509Z,5.63
2019-05-09T17:19:52.442Z,6.40
2019-05-09T17:22:24.092Z,6.10
2019-05-09T17:24:53.842Z,7.10
2019-05-09T17:27:23.727Z,7.33
2019-05-09T17:29:53.563Z,8.30
2019-05-09T17:32:23.470Z,6.73
2019-05-09T17:34:53.307Z,7.40
2019-05-09T17:37:23.176Z,9.73
2019-05-09T17:39:53.076Z,7.90
2019-05-09T17:42:22.896Z,9.83
2019-05-09T17:44:52.652Z,7.30
2019-05-09T17:47:22.461Z,7.60
2019-05-09T17:49:52.558Z,7.73
2019-05-09T17:52:22.348Z,8.10
2019-05-09T17:54:52.172Z,6.97
2019-05-09T17:57:22.016Z,7.87
2019-05-09T17:59:51.980Z,7.57
2019-05-09T18:02:22.737Z,8.20
2019-05-09T18:04:52.557Z,7.83
2019-05-09T18:07:22.358Z,7.03
2019-05-09T18:09:52.247Z,6.13
2019-05-09T18:12:22.137Z,6.40
2019-05-09T18:14:52.008Z,6.57
2019-05-09T18:17:21.773Z,7.60
2019-05-09T18:19:51.528Z,6.70
2019-05-09T18:22:21.443Z,6.67
2019-05-09T18:24:51.260Z,7.00
2019-05-09T18:27:21.068Z,6.07
2019-05-09T18:29:50.890Z,6.10
2019-05-09T18:32:34.765Z,6.60
2019-05-09T18:35:16.849Z,7.23
2019-05-09T18:37:48.120Z,7.20
2019-05-09T18:40:18.801Z,6.87
2019-05-09T18:42:48.963Z,7.87
2019-05-09T18:45:19.958Z,7.10
2019-05-09T18:47:50.069Z,7.03
2019-05-09T18:50:19.973Z,29.77
2019-05-09T18:52:49.806Z,19.80
2019-05-09T18:55:20.119Z,18.47
2019-05-09T18:57:50.098Z,11.13
2019-05-09T19:00:21.624Z,7.40
2019-05-09T19:02:51.688Z,6.73
2019-05-09T19:05:21.793Z,6.27
2019-05-09T19:07:51.636Z,5.97
2019-05-09T19:10:21.504Z,5.70
2019-05-09T19:12:51.281Z,5.33
2019-05-09T19:15:34.971Z,5.73
2019-05-09T19:18:23.605Z,5.93
2019-05-09T19:20:57.941Z,5.70
2019-05-09T19:23:27.764Z,5.93
2019-05-09T19:26:00.466Z,5.50
2019-05-09T19:28:31.886Z,6.13
2019-05-09T19:31:06.503Z,6.53
2019-05-09T19:33:36.298Z,5.63
2019-05-09T19:36:06.360Z,5.30
2019-05-09T19:38:37.751Z,6.03
2019-05-09T19:41:07.542Z,6.33
2019-05-09T19:43:37.383Z,5.00
2019-05-09T19:46:10.452Z,4.33
2019-05-09T19:48:40.533Z,4.60
2019-05-09T19:51:10.467Z,4.70
2019-05-09T19:53:40.383Z,5.53
2019-05-09T19:56:10.201Z,4.53
2019-05-09T19:58:40.030Z,4.20
2019-05-09T20:01:09.941Z,4.23
2019-05-09T20:03:39.898Z,3.80
2019-05-09T20:06:09.791Z,4.20
2019-05-09T20:08:39.631Z,3.83
2019-05-09T20:11:23.539Z,3.47
2019-05-09T20:13:57.603Z,3.57
2019-05-09T20:16:33.417Z,3.50
2019-05-09T20:19:05.149Z,3.40
2019-05-09T20:21:36.996Z,4.43
2019-05-09T20:24:09.330Z,2.90
2019-05-09T20:26:41.805Z,2.93
2019-05-09T20:29:12.014Z,2.50
2019-05-09T20:31:43.383Z,3.20
2019-05-09T20:34:13.993Z,2.80
2019-05-09T20:36:44.251Z,2.87
2019-05-09T20:39:16.380Z,2.90
2019-05-09T20:41:50.687Z,2.53
2019-05-09T20:44:22.124Z,3.00
2019-05-09T20:46:52.631Z,3.13
2019-05-09T20:49:30.199Z,3.10
2019-05-09T20:52:02.189Z,3.13
2019-05-09T20:54:34.541Z,3.33
2019-05-09T20:57:08.105Z,3.50
2019-05-09T20:59:43.488Z,3.50
2019-05-09T21:02:15.601Z,3.20
2019-05-09T21:04:48.543Z,3.10
2019-05-09T21:07:19.594Z,3.10
2019-05-09T21:10:03.396Z,3.23
2019-05-09T21:12:36.045Z,3.33
2019-05-09T21:15:09.733Z,3.23
2019-05-09T21:17:43.962Z,2.87
2019-05-09T21:20:15.348Z,3.33
2019-05-09T21:22:45.462Z,3.30
2019-05-09T21:25:15.498Z,3.20
2019-05-09T21:27:48.889Z,3.50
2019-05-09T21:30:22.158Z,3.63
2019-05-09T21:32:53.475Z,3.40
2019-05-09T21:35:23.356Z,3.20
2019-05-09T21:37:56.997Z,3.70
2019-05-09T21:40:26.849Z,3.40
2019-05-09T21:42:58.271Z,3.67
2019-05-09T21:45:29.219Z,3.10
2019-05-09T21:48:00.193Z,3.30
2019-05-09T21:50:31.154Z,3.13
2019-05-09T21:53:01.137Z,3.23
2019-05-09T21:55:30.993Z,3.40
2019-05-09T21:58:01.624Z,3.60
2019-05-09T22:00:35.656Z,3.73
2019-05-09T22:03:07.199Z,3.57
2019-05-09T22:05:37.677Z,3.60
2019-05-09T22:08:07.685Z,3.53
2019-05-09T22:10:37.544Z,3.73
2019-05-09T22:13:07.379Z,3.60
2019-05-09T22:15:37.230Z,3.93
2019-05-09T22:18:06.978Z,3.63
2019-05-09T22:20:36.650Z,3.60
2019-05-09T22:23:06.808Z,3.73
2019-05-09T22:25:36.627Z,3.63
2019-05-09T22:28:06.715Z,3.60
2019-05-09T22:30:36.395Z,3.53
2019-05-09T22:33:06.109Z,3.47
2019-05-09T22:35:35.807Z,3.53
2019-05-09T22:38:05.572Z,3.80
2019-05-09T22:40:35.282Z,3.50
2019-05-09T22:43:05.120Z,3.50
2019-05-09T22:45:35.036Z,3.33
2019-05-09T22:48:05.861Z,3.50
2019-05-09T22:50:35.597Z,3.97
2019-05-09T22:53:05.592Z,3.60
2019-05-09T22:55:37.939Z,3.33
2019-05-09T22:58:07.061Z,3.90
2019-05-09T23:00:37.053Z,4.20
2019-05-09T23:03:06.911Z,4.27
2019-05-09T23:05:36.721Z,4.10
2019-05-09T23:08:06.534Z,4.10
2019-05-09T23:10:36.281Z,4.40
2019-05-09T23:13:06.067Z,4.27
2019-05-09T23:15:38.053Z,4.70
2019-05-09T23:18:07.855Z,4.23
2019-05-09T23:20:47.994Z,4.50
2019-05-09T23:23:22.419Z,4.57
2019-05-09T23:25:52.212Z,3.97
2019-05-09T23:28:22.106Z,4.33
2019-05-09T23:30:53.484Z,3.90
2019-05-09T23:33:24.811Z,4.27
2019-05-09T23:35:54.767Z,4.27
2019-05-09T23:38:24.618Z,4.10
2019-05-09T23:40:54.730Z,4.03
2019-05-09T23:43:24.475Z,4.10
2019-05-09T23:45:54.434Z,4.40
2019-05-09T23:48:55.184Z,3.63
2019-05-09T23:51:26.612Z,3.90
2019-05-09T23:53:55.567Z,4.00
2019-05-09T23:56:43.106Z,3.57
2019-05-09T23:59:30.787Z,4.00
